• Join FlightAware (Why Join?)
  • Login
  • US Flag 
09:33PM EDT


 

Airport Tracker/Info


-or-


 

Live Flight TrackerFlight Track Log ✈ UAL4596 ✈ 16-Apr-2013 ✈ KEWR - KSTL

Flight Track Log - Related Links

Times and Time Zones

All times are in EDT time to prevent confusion due to time zone crossing. See the UAL4596 flight status page for this flight to view local times or setup timezone preferences in your user account.

Time Position Orientation Groundspeed Altitude Reporting Facility
EDT Latitude Longitude Course Direction KTS MPH feet Rate Location/Type
03:05PM 40.6500 -74.2167 285° West 200 230 2,400  Level New York TRACON
03:06PM 40.6667 -74.3000 285° West 250 288 5,000 2,460 Climbing New York TRACON
03:07PM 40.7000 -74.3833 298° West 245 282 7,600 2,340 Climbing New York TRACON
03:08PM 40.7167 -74.4833 282° West 244 281 10,000 1,800 Climbing New York TRACON
03:09PM 40.7167 -74.5667 270° West 268 308 11,400 1,260 Climbing New York TRACON
03:10PM 40.7342 -74.6269 291° West 286 329 12,000 1,740 Climbing New York Center
03:11PM 40.7469 -74.7372 279° West 293 337 14,100 1,620 Climbing New York Center
03:12PM 40.7647 -74.8314 284° West 303 349 15,300 1,200 Climbing New York Center
03:13PM 40.7794 -74.9503 279° West 324 373 16,600 1,140 Climbing New York Center
03:14PM 40.7942 -75.0553 281° West 319 367 17,700 960 Climbing New York Center
03:15PM 40.7964 -75.1678 272° West 314 361 18,600 1,020 Climbing New York Center
03:16PM 40.7794 -75.2872 259° West 320 368 19,800 1,140 Climbing New York Center
03:17PM 40.7561 -75.4036 255° West 327 376 21,000 1,200 Climbing New York Center
03:18PM 40.7114 -75.5319 245° Southwest 338 389 22,200 1,200 Climbing New York Center
03:19PM 40.6714 -75.6442 245° Southwest 344 396 23,400 1,140 Climbing New York Center
03:20PM 40.6269 -75.7614 243° Southwest 357 411 24,600 1,200 Climbing New York Center
03:21PM 40.5825 -75.8756 243° Southwest 357 411 25,800 1,140 Climbing New York Center
03:22PM 40.5383 -75.9817 241° Southwest 357 411 27,000 1,080 Climbing New York Center
03:23PM 40.4956 -76.0983 244° Southwest 357 411 28,000 480 Climbing New York Center
03:24PM 40.4483 -76.2203 243° Southwest 357 411 28,000 60 Level New York Center
03:25PM 40.4006 -76.3472 244° Southwest 374 430 28,200 540 Climbing New York Center
03:26PM 40.3508 -76.4739 243° Southwest 381 438 29,100 900 Climbing New York Center
03:27PM 40.2983 -76.6086 243° Southwest 386 444 30,100 960 Climbing New York Center
03:28PM 40.2464 -76.7319 241° Southwest 386 444 31,100 960 Climbing New York Center
03:29PM 40.1964 -76.8556 242° Southwest 386 444 32,000 900 Climbing New York Center
03:30PM 40.1461 -76.9786 242° Southwest 386 444 33,000 960 Climbing New York Center
03:31PM 40.0978 -77.1019 243° Southwest 386 444 33,900 900 Climbing New York Center
03:32PM 40.0475 -77.2222 241° Southwest 386 444 34,800 840 Climbing New York Center
03:33PM 40.0039 -77.3322 243° Southwest 374 430 35,700 420 Climbing New York Center
03:35PM 39.9583 -77.5603 255° West 363 418 36,000 60 Climbing Cleveland Center
03:36PM 39.9619 -77.7011 272° West 370 426 36,000  Level Cleveland Center
03:37PM 39.9675 -77.8389 273° West 386 444 36,000  Level Cleveland Center
03:38PM 39.9706 -77.9769 272° West 381 438 36,000  Level Cleveland Center
03:40PM 39.9786 -78.2503 272° West 381 438 36,000  Level Cleveland Center
03:41PM 39.9814 -78.3883 272° West 381 438 36,000  Level Cleveland Center
03:42PM 39.9861 -78.5292 273° West 381 438 36,000  Level Cleveland Center
03:43PM 39.9886 -78.6647 271° West 381 438 36,000  Level Cleveland Center
03:44PM 39.9908 -78.8056 271° West 381 438 36,000  Level Cleveland Center
03:45PM 39.9928 -78.9408 271° West 381 438 36,000  Level Cleveland Center
03:46PM 40.0008 -79.0789 274° West 381 438 36,000  Level Cleveland Center
03:47PM 40.0028 -79.2144 271° West 381 438 36,000  Level Cleveland Center
03:48PM 40.0064 -79.3525 272° West 381 438 36,000  Level Cleveland Center
03:49PM 40.0056 -79.4908 270° West 381 438 36,000  Level Cleveland Center
03:50PM 40.0089 -79.6289 272° West 381 438 36,000  Level Cleveland Center
03:51PM 40.0100 -79.7644 271° West 381 438 36,000  Level Cleveland Center
03:52PM 40.0131 -79.9000 272° West 381 438 36,000  Level Cleveland Center
03:53PM 40.0117 -80.0383 269° West 381 438 36,000  Level Cleveland Center
03:54PM 40.0164 -80.1603 273° West 381 438 36,000  Level Cleveland Center
03:55PM 40.0147 -80.2983 269° West 381 438 36,000  Level Cleveland Center
03:56PM 40.0169 -80.4339 271° West 381 438 36,000  Level Cleveland Center
03:57PM 40.0192 -80.5750 271° West 381 438 36,000  Level Cleveland Center
03:58PM 40.0192 -80.7158 270° West 381 438 36,000  Level Cleveland Center
03:59PM 40.0142 -80.9503 268° West 387 445 36,000  Level Indianapolis Center
04:00PM 40.0128 -81.0922 269° West 387 445 36,000  Level Indianapolis Center
04:01PM 40.0108 -81.2339 269° West 387 445 36,000  Level Indianapolis Center
04:02PM 40.0075 -81.3753 268° West 387 445 36,000  Level Indianapolis Center
04:03PM 40.0053 -81.5167 269° West 386 444 36,000  Level Indianapolis Center
04:04PM 40.0028 -81.6606 269° West 391 450 36,000  Level Indianapolis Center
04:05PM 39.9994 -81.8203 268° West 391 450 36,000  Level Indianapolis Center
04:06PM 39.9950 -81.9628 268° West 392 451 36,000  Level Indianapolis Center
04:07PM 39.9925 -82.1067 269° West 393 452 36,000  Level Indianapolis Center
04:08PM 39.9892 -82.2500 268° West 393 452 36,000  Level Indianapolis Center
04:09PM 39.9856 -82.3928 268° West 393 452 36,000  Level Indianapolis Center
04:10PM 39.9819 -82.5372 268° West 394 453 36,000  Level Indianapolis Center
04:12PM 39.9769 -82.6806 267° West 393 452 36,000  Level Indianapolis Center
04:13PM 39.9733 -82.8242 268° West 394 453 36,000 -60 Level Indianapolis Center
04:14PM 39.9675 -82.9897 267° West 389 448 35,900  Descending Indianapolis Center
04:15PM 39.9644 -83.1286 268° West 383 441 36,000  Climbing Indianapolis Center
04:16PM 39.9614 -83.2633 268° West 373 429 36,000  Level Indianapolis Center
04:17PM 39.9578 -83.3969 268° West 370 426 36,000  Level Indianapolis Center
04:18PM 39.9528 -83.5283 267° West 368 423 36,000  Level Indianapolis Center
04:19PM 39.9469 -83.6586 267° West 361 415 36,000  Level Indianapolis Center
04:20PM 39.9414 -83.8100 267° West 359 413 36,000  Level Indianapolis Center
04:21PM 39.9719 -83.9350 288° West 364 419 36,000  Level Indianapolis Center
04:22PM 40.0117 -84.0569 293° West 361 415 36,000  Level Indianapolis Center
04:23PM 40.0503 -84.1769 293° West 357 411 36,000  Level Indianapolis Center
04:24PM 40.0903 -84.2994 293° West 362 417 36,000  Level Indianapolis Center
04:25PM 40.1300 -84.4225 293° West 364 419 36,000  Level Indianapolis Center
04:26PM 40.1717 -84.5469 294° West 370 426 36,000  Level Indianapolis Center
04:27PM 40.2089 -84.6725 291° West 369 425 36,000  Level Indianapolis Center
04:28PM 40.2497 -84.7981 293° West 371 427 36,000  Level Indianapolis Center
04:29PM 40.2978 -84.9458 293° West 375 432 36,000 -60 Level Indianapolis Center
04:30PM 40.3183 -85.0783 282° West 367 422 35,900  Descending Indianapolis Center
04:31PM 40.2808 -85.2056 249° West 366 421 36,000  Climbing Indianapolis Center
04:32PM 40.2433 -85.3328 249° West 370 426 36,000 -120 Level Indianapolis Center
04:33PM 40.2300 -85.3767 248° West 373 429 35,900  Descending Indianapolis Center
04:33PM 40.2144 -85.4272 248° West 376 433 36,000 60 Climbing Chicago Center
04:34PM 40.1747 -85.5578 248° West 382 440 36,000  Level Chicago Center
04:35PM 40.1347 -85.6906 249° West 389 448 36,000  Level Chicago Center
04:36PM 40.1025 -85.7942 248° West 388 447 36,000 -120 Level Indianapolis Center
04:37PM 40.0653 -85.9197 249° West 375 432 35,900  Descending Indianapolis Center
04:38PM 40.0311 -86.0272 247° West 372 428 36,000  Climbing Indianapolis Center
04:38PM 39.9956 -86.1475 249° West 377 434 36,000  Level Chicago Center
04:40PM 39.9567 -86.2742 248° West 378 435 36,000  Level Chicago Center
04:41PM 39.9050 -86.4369 248° West 381 438 36,000  Level Indianapolis Center
04:42PM 39.8656 -86.5664 248° West 383 441 36,000  Level Indianapolis Center
04:43PM 39.8258 -86.6922 248° West 378 435 36,000 -180 Level Indianapolis Center
04:44PM 39.7867 -86.8189 248° West 377 434 35,700 -540 Descending Indianapolis Center
04:45PM 39.7481 -86.9431 248° West 373 429 35,000 -360 Descending Indianapolis Center
04:46PM 39.7156 -87.0583 250° West 352 405 35,000  Level Indianapolis Center
04:47PM 39.6911 -87.2050 258° West 346 398 35,000  Level Indianapolis Center
04:48PM 39.6689 -87.3364 258° West 366 421 35,000  Level Indianapolis Center
04:49PM 39.6542 -87.4725 262° West 378 435 35,000 -300 Level Indianapolis Center
04:50PM 39.6269 -87.5953 254° West 368 423 34,400 -1,320 Descending Indianapolis Center
04:51PM 39.5883 -87.7131 247° West 357 411 32,300 -2,280 Descending Indianapolis Center
04:52PM 39.5494 -87.8297 247° West 354 407 29,800 -2,100 Descending Indianapolis Center
04:53PM 39.5100 -87.9442 246° West 352 405 28,000 -900 Descending Indianapolis Center
04:54PM 39.4731 -88.0572 247° West 347 399 28,000  Level Indianapolis Center
04:55PM 39.4350 -88.1697 246° West 342 394 28,000  Level Indianapolis Center
04:55PM 39.4286 -88.1936 251° West 342 394 28,000 -480 Level Kansas City Center
04:56PM 39.3875 -88.3506 251° West 381 438 27,400 -960 Descending Kansas City Center
04:57PM 39.3658 -88.4797 258° West 377 434 26,000 -1,440 Descending Kansas City Center
04:58PM 39.3231 -88.6058 246° West 386 444 24,500 -1,500 Descending Kansas City Center
04:59PM 39.2775 -88.7383 246° West 395 455 23,000 -1,740 Descending Kansas City Center
05:01PM 39.2356 -88.8683 247° West 396 456 20,800 -2,160 Descending Kansas City Center
05:02PM 39.1867 -89.0186 247° West 384 442 18,600 -1,920 Descending Kansas City Center
05:03PM 39.1478 -89.1392 247° West 369 425 16,900 -1,920 Descending Kansas City Center
05:03PM 39.1133 -89.1922 230° Southwest 344 396 15,000 -1,920 Descending FAA TRACON SMA TRACON (SMA)
05:04PM 39.1006 -89.2267 244° Southwest 346 398 14,500 -1,620 Descending FAA TRACON SMA TRACON (SMA)
05:04PM 39.0881 -89.2614 245° Southwest 346 398 13,900 -2,040 Descending FAA TRACON SMA TRACON (SMA)
05:04PM 39.0739 -89.3050 247° West 345 397 13,200 -1,980 Descending FAA TRACON SMA TRACON (SMA)
05:05PM 39.0619 -89.3392 246° West 342 394 12,600 -1,800 Descending FAA TRACON SMA TRACON (SMA)
05:05PM 39.0522 -89.3742 250° West 339 390 12,000 -2,040 Descending FAA TRACON SMA TRACON (SMA)
05:05PM 39.0356 -89.4144 242° Southwest 333 383 11,300 -1,500 Descending FAA TRACON SMA TRACON (SMA)
05:06PM 39.0239 -89.4469 245° Southwest 325 374 11,000 -600 Descending FAA TRACON SMA TRACON (SMA)
05:06PM 39.0142 -89.4786 248° West 314 361 10,900 -180 Descending FAA TRACON SMA TRACON (SMA)
05:06PM 39.0008 -89.5175 246° West 308 354 10,900  Level FAA TRACON SMA TRACON (SMA)
05:07PM 38.9903 -89.5483 246° West 308 354 10,900  Level FAA TRACON SMA TRACON (SMA)
05:07PM 38.9711 -89.5717 223° Southwest 307 353 10,900  Level FAA TRACON SMA TRACON (SMA)
05:07PM 38.9447 -89.5967 216° Southwest 311 358 10,900 -480 Level FAA TRACON SMA TRACON (SMA)
05:08PM 38.9233 -89.6153 214° Southwest 303 349 10,600 -900 Descending FAA TRACON SMA TRACON (SMA)
05:08PM 38.9042 -89.6325 215° Southwest 286 329 10,300 -1,260 Descending FAA TRACON SMA TRACON (SMA)
05:08PM 38.8825 -89.6539 218° Southwest 263 303 9,800 -1,380 Descending FAA TRACON SMA TRACON (SMA)
05:09PM 38.8639 -89.6697 214° Southwest 258 297 9,400 -1,200 Descending FAA TRACON SMA TRACON (SMA)
05:09PM 38.8453 -89.6867 215° Southwest 257 296 9,000 -1,560 Descending FAA TRACON SMA TRACON (SMA)
05:09PM 38.8217 -89.7083 216° Southwest 268 308 8,400 -1,620 Descending FAA TRACON SMA TRACON (SMA)
05:10PM 38.8039 -89.7250 216° Southwest 264 304 7,900 -1,620 Descending FAA TRACON SMA TRACON (SMA)
05:10PM 38.7814 -89.7464 217° Southwest 260 299 7,300 -1,440 Descending FAA TRACON SMA TRACON (SMA)
05:10PM 38.7644 -89.7636 218° Southwest 256 295 7,000 -600 Descending FAA TRACON SMA TRACON (SMA)
05:11PM 38.7483 -89.7794 217° Southwest 246 283 6,900 -480 Descending FAA TRACON SMA TRACON (SMA)
05:11PM 38.7319 -89.7958 218° Southwest 241 277 6,700 -1,200 Descending FAA TRACON SMA TRACON (SMA)
05:11PM 38.7128 -89.8158 219° Southwest 236 272 6,100 -1,500 Descending FAA TRACON SMA TRACON (SMA)
05:12PM 38.6964 -89.8317 217° Southwest 235 270 5,700 -1,440 Descending FAA TRACON SMA TRACON (SMA)
05:12PM 38.6808 -89.8472 218° Southwest 235 270 5,200 -1,200 Descending FAA TRACON SMA TRACON (SMA)
05:12PM 38.6614 -89.8667 218° Southwest 231 266 4,900 -480 Descending FAA TRACON SMA TRACON (SMA)
05:13PM 38.6469 -89.8811 218° Southwest 226 260 4,900  Level FAA TRACON SMA TRACON (SMA)
05:13PM 38.6328 -89.8944 216° Southwest 213 245 4,900  Level FAA TRACON SMA TRACON (SMA)
05:13PM 38.6147 -89.9114 216° Southwest 201 231 4,900  Level FAA TRACON SMA TRACON (SMA)
05:14PM 38.6019 -89.9247 219° Southwest 198 228 4,900  Level FAA TRACON SMA TRACON (SMA)
05:14PM 38.5931 -89.9431 238° Southwest 207 238 4,900  Level FAA TRACON SMA TRACON (SMA)
05:14PM 38.5944 -89.9717 274° West 212 244 4,900  Level FAA TRACON SMA TRACON (SMA)
05:15PM 38.5964 -89.9947 276° West 211 243 4,900  Level FAA TRACON SMA TRACON (SMA)
05:15PM 38.6017 -90.0167 287° West 212 244 4,900 -780 Level FAA TRACON SMA TRACON (SMA)
05:15PM 38.6131 -90.0428 299° West 219 252 4,400 -1,500 Descending FAA TRACON SMA TRACON (SMA)
05:16PM 38.6242 -90.0628 305° West 222 255 3,900 -1,440 Descending FAA TRACON SMA TRACON (SMA)
05:16PM 38.6342 -90.0833 302° West 223 257 3,500 -780 Descending FAA TRACON SMA TRACON (SMA)
05:16PM 38.6469 -90.1092 302° West 221 254 3,400 -180 Descending FAA TRACON SMA TRACON (SMA)
05:17PM 38.6572 -90.1292 303° West 221 254 3,400 -660 Level FAA TRACON SMA TRACON (SMA)
05:17PM 38.6675 -90.1500 302° West 222 255 3,000 -1,320 Descending FAA TRACON SMA TRACON (SMA)